createdAt,value
2018-04-07T00:01:22.066Z,3.23
2018-04-07T00:03:54.014Z,3.73
2018-04-07T00:06:24.982Z,3.73
2018-04-07T00:08:57.720Z,3.40
2018-04-07T00:11:28.654Z,3.40
2018-04-07T00:13:59.576Z,3.30
2018-04-07T00:16:31.442Z,3.40
2018-04-07T00:19:04.763Z,3.27
2018-04-07T00:21:35.571Z,3.70
2018-04-07T00:24:06.691Z,3.40
2018-04-07T00:26:37.568Z,3.60
2018-04-07T00:29:08.498Z,3.23
2018-04-07T00:31:39.319Z,3.43
2018-04-07T00:34:34.734Z,3.70
2018-04-07T00:37:46.310Z,3.07
2018-04-07T00:46:39.999Z,3.30
2018-04-07T00:49:14.304Z,2.97
2018-04-07T00:52:27.862Z,3.33
2018-04-07T00:54:58.834Z,3.30
2018-04-07T00:57:29.862Z,3.07
2018-04-07T01:00:00.774Z,3.07
2018-04-07T01:02:31.887Z,2.97
2018-04-07T01:05:02.599Z,3.33
2018-04-07T01:07:33.244Z,2.93
2018-04-07T01:10:04.021Z,3.00
2018-04-07T01:12:35.842Z,2.80
2018-04-07T01:15:06.526Z,3.00
2018-04-07T01:17:37.881Z,3.40
2018-04-07T01:20:08.832Z,2.70
2018-04-07T01:22:39.418Z,3.30
2018-04-07T01:25:10.020Z,2.83
2018-04-07T01:27:40.963Z,3.67
2018-04-07T01:30:11.861Z,2.97
2018-04-07T01:32:42.480Z,3.27
2018-04-07T01:35:14.102Z,3.20
2018-04-07T01:37:44.726Z,3.80
2018-04-07T01:40:15.502Z,3.30
2018-04-07T01:42:46.425Z,2.50
2018-04-07T01:45:18.131Z,2.50
2018-04-07T01:47:48.973Z,3.30
2018-04-07T01:50:19.607Z,3.10
2018-04-07T01:52:50.318Z,2.63
2018-04-07T01:55:21.410Z,2.93
2018-04-07T01:57:52.967Z,3.03
2018-04-07T02:00:24.675Z,2.83
2018-04-07T02:02:56.407Z,3.00
2018-04-07T02:05:27.402Z,3.17
2018-04-07T02:07:58.280Z,2.93
2018-04-07T02:10:30.107Z,2.80
2018-04-07T02:13:01.049Z,2.70
2018-04-07T02:15:32.487Z,2.60
2018-04-07T02:18:03.421Z,3.07
2018-04-07T02:20:34.046Z,2.70
2018-04-07T02:23:05.030Z,2.77
2018-04-07T02:25:35.916Z,2.60
2018-04-07T02:28:06.567Z,2.70
2018-04-07T02:30:38.236Z,2.73
2018-04-07T02:33:09.818Z,2.40
2018-04-07T02:35:41.374Z,2.47
2018-04-07T02:38:12.490Z,3.17
2018-04-07T02:40:43.119Z,2.57
2018-04-07T02:43:14.108Z,2.73
2018-04-07T02:45:44.987Z,2.70
2018-04-07T02:48:16.638Z,2.63
2018-04-07T02:50:48.565Z,2.90
2018-04-07T02:53:19.591Z,2.77
2018-04-07T02:55:50.406Z,3.00
2018-04-07T02:58:21.084Z,2.83
2018-04-07T03:00:52.231Z,2.80
2018-04-07T03:03:23.659Z,2.50
2018-04-07T03:05:54.546Z,3.33
2018-04-07T03:08:25.493Z,2.63
2018-04-07T03:10:56.127Z,2.93
2018-04-07T03:13:27.134Z,3.00
2018-04-07T03:15:57.828Z,3.03
2018-04-07T03:18:28.494Z,3.47
2018-04-07T03:21:00.002Z,3.17
2018-04-07T03:23:31.011Z,3.17
2018-04-07T03:26:01.748Z,2.77
2018-04-07T03:28:32.445Z,3.10
2018-04-07T03:31:04.221Z,3.17
2018-04-07T03:33:35.195Z,2.93
2018-04-07T03:36:05.827Z,3.10
2018-04-07T03:38:36.491Z,2.60
2018-04-07T03:41:07.111Z,2.97
2018-04-07T03:43:38.127Z,3.40
2018-04-07T03:46:08.804Z,3.30
2018-04-07T03:48:39.571Z,3.10
2018-04-07T03:51:10.443Z,3.33
2018-04-07T03:53:41.683Z,2.70
2018-04-07T03:56:12.340Z,3.17
2018-04-07T03:58:42.967Z,3.20
2018-04-07T04:01:13.980Z,3.27
2018-04-07T04:03:58.761Z,3.33
2018-04-07T04:06:30.841Z,3.20
2018-04-07T04:09:02.607Z,2.93
2018-04-07T04:11:33.743Z,3.10
2018-04-07T04:14:04.711Z,2.97
2018-04-07T04:16:36.478Z,3.37
2018-04-07T04:19:08.648Z,3.47
2018-04-07T04:21:39.295Z,3.23
2018-04-07T04:24:10.251Z,3.40
2018-04-07T04:26:41.870Z,3.37
2018-04-07T04:29:12.839Z,3.50
2018-04-07T04:31:43.969Z,3.90
2018-04-07T04:34:15.108Z,3.40
2018-04-07T04:36:45.799Z,3.27
2018-04-07T04:39:17.614Z,3.30
2018-04-07T04:41:48.579Z,3.30
2018-04-07T04:44:19.367Z,3.60
2018-04-07T04:46:49.995Z,3.47
2018-04-07T04:49:22.427Z,3.80
2018-04-07T04:51:53.107Z,3.73
2018-04-07T04:54:25.687Z,3.37
2018-04-07T04:56:56.562Z,3.27
2018-04-07T04:59:27.950Z,3.57
2018-04-07T05:01:58.724Z,3.57
2018-04-07T05:04:30.758Z,3.60
2018-04-07T05:07:01.437Z,3.57
2018-04-07T05:09:33.749Z,3.40
2018-04-07T05:12:04.651Z,23.87
2018-04-07T05:14:38.498Z,3.20
2018-04-07T05:17:09.196Z,3.60
2018-04-07T05:19:40.508Z,3.37
2018-04-07T05:22:11.161Z,3.63
2018-04-07T05:24:42.551Z,3.57
2018-04-07T05:27:13.438Z,3.60
2018-04-07T06:27:04.442Z,3.80
2018-04-07T06:29:48.765Z,3.63
2018-04-07T06:32:32.407Z,3.93
2018-04-07T06:35:03.071Z,3.87
2018-04-07T06:37:34.063Z,3.73
2018-04-07T06:40:06.978Z,4.17
2018-04-07T06:42:37.978Z,4.00
2018-04-07T06:45:08.924Z,10.97
2018-04-07T06:47:40.370Z,4.10
2018-04-07T06:50:11.270Z,3.60
2018-04-07T06:52:42.044Z,4.17
2018-04-07T06:55:12.777Z,3.63
2018-04-07T06:57:43.824Z,3.63
2018-04-07T07:00:15.958Z,4.13
2018-04-07T07:02:46.678Z,4.03
2018-04-07T07:05:18.455Z,4.20
2018-04-07T07:07:49.117Z,4.10
2018-04-07T07:10:20.611Z,3.93
2018-04-07T07:12:51.385Z,4.10
2018-04-07T07:15:22.875Z,5.60
2018-04-07T07:17:54.079Z,6.53
2018-04-07T07:20:27.012Z,7.10
2018-04-07T07:22:59.555Z,4.30
2018-04-07T07:25:38.237Z,4.30
2018-04-07T07:28:10.551Z,4.13
2018-04-07T07:30:42.145Z,4.60
2018-04-07T07:33:13.166Z,4.40
2018-04-07T07:35:47.494Z,4.03
2018-04-07T07:38:18.708Z,3.80
2018-04-07T07:40:49.531Z,4.00
2018-04-07T07:43:24.995Z,4.10
2018-04-07T07:45:58.471Z,4.30
2018-04-07T07:48:30.439Z,4.33
2018-04-07T07:51:02.109Z,4.50
2018-04-07T07:53:33.042Z,4.17
2018-04-07T07:56:03.846Z,4.20
2018-04-07T07:58:36.323Z,4.73
2018-04-07T08:01:08.318Z,4.67
2018-04-07T08:03:40.858Z,5.13
2018-04-07T08:06:11.975Z,4.53
2018-04-07T08:08:42.986Z,4.30
2018-04-07T08:11:13.716Z,4.53
2018-04-07T08:13:45.284Z,4.87
2018-04-07T08:16:16.370Z,4.80
2018-04-07T08:18:47.820Z,4.87
2018-04-07T08:21:18.545Z,4.80
2018-04-07T08:23:49.657Z,4.30
2018-04-07T08:26:20.949Z,5.00
2018-04-07T08:28:52.719Z,5.03
2018-04-07T08:31:23.507Z,4.30
2018-04-07T08:33:54.276Z,5.40
2018-04-07T08:36:25.731Z,4.83
2018-04-07T08:38:57.252Z,5.30
2018-04-07T08:41:28.218Z,5.63
2018-04-07T08:43:59.274Z,4.83
2018-04-07T08:46:30.004Z,5.57
2018-04-07T08:49:00.799Z,5.23
2018-04-07T08:51:32.511Z,5.47
2018-04-07T08:54:03.256Z,10.33
2018-04-07T08:56:34.716Z,5.00
2018-04-07T08:59:05.651Z,5.00
2018-04-07T09:01:36.310Z,5.10
2018-04-07T09:04:06.972Z,5.07
2018-04-07T09:06:38.394Z,5.40
2018-04-07T09:09:09.182Z,5.47
2018-04-07T09:11:40.276Z,5.20
2018-04-07T09:14:11.975Z,5.27
2018-04-07T09:16:43.416Z,5.23
2018-04-07T09:19:14.222Z,5.50
2018-04-07T09:21:45.987Z,5.27
2018-04-07T09:24:17.391Z,5.00
2018-04-07T09:26:48.120Z,5.87
2018-04-07T09:29:19.006Z,5.93
2018-04-07T09:31:49.754Z,5.60
2018-04-07T09:34:20.442Z,5.77
2018-04-07T09:36:51.135Z,5.20
2018-04-07T09:39:21.934Z,5.57
2018-04-07T09:41:53.762Z,5.40
2018-04-07T09:44:24.536Z,5.17
2018-04-07T09:46:55.959Z,6.63
2018-04-07T09:49:26.920Z,5.90
2018-04-07T09:51:57.664Z,5.43
2018-04-07T09:54:28.398Z,5.90
2018-04-07T09:56:59.415Z,5.90
2018-04-07T09:59:30.078Z,5.33
2018-04-07T10:02:01.710Z,5.40
2018-04-07T10:04:33.787Z,5.57
2018-04-07T10:07:05.511Z,5.70
2018-04-07T10:09:36.593Z,5.90
2018-04-07T10:12:07.216Z,5.93
2018-04-07T10:14:37.898Z,5.90
2018-04-07T10:17:08.524Z,6.20
2018-04-07T10:19:39.197Z,6.53
2018-04-07T10:22:10.726Z,11.77
2018-04-07T10:24:42.212Z,7.13
2018-04-07T10:27:13.971Z,6.67
2018-04-07T10:29:44.891Z,5.97
2018-04-07T10:32:15.644Z,5.90
2018-04-07T10:34:46.587Z,6.20
2018-04-07T10:37:17.243Z,6.30
2018-04-07T10:39:48.119Z,5.90
2018-04-07T10:42:19.031Z,6.67
2018-04-07T10:44:49.724Z,6.43
2018-04-07T10:47:20.505Z,6.43
2018-04-07T10:49:51.475Z,6.37
2018-04-07T10:52:23.076Z,6.50
2018-04-07T10:54:54.343Z,5.77
2018-04-07T10:57:25.595Z,6.73
2018-04-07T10:59:56.275Z,6.57
2018-04-07T11:02:27.175Z,6.60
2018-04-07T11:04:57.868Z,6.53
2018-04-07T11:07:28.503Z,6.90
2018-04-07T11:10:00.606Z,7.07
2018-04-07T11:12:32.052Z,6.50
2018-04-07T11:15:02.770Z,6.63
2018-04-07T11:17:33.671Z,6.97
2018-04-07T11:20:04.750Z,6.23
2018-04-07T11:22:35.728Z,6.77
2018-04-07T11:25:06.425Z,6.60
2018-04-07T11:27:37.289Z,6.47
2018-04-07T11:30:10.112Z,6.63
2018-04-07T11:32:40.878Z,7.23
2018-04-07T11:35:11.867Z,7.43
2018-04-07T11:37:42.511Z,6.73
2018-04-07T11:40:13.219Z,7.43
2018-04-07T11:42:44.354Z,7.90
2018-04-07T11:45:15.790Z,7.13
2018-04-07T11:47:47.250Z,7.10
2018-04-07T11:50:18.394Z,7.20
2018-04-07T11:52:49.106Z,6.80
2018-04-07T11:55:19.750Z,6.93
2018-04-07T11:57:50.771Z,7.37
2018-04-07T12:00:21.448Z,7.20
2018-04-07T12:02:52.112Z,7.60
2018-04-07T12:05:22.818Z,7.47
2018-04-07T12:07:53.463Z,7.67
2018-04-07T12:10:24.359Z,7.67
2018-04-07T12:12:56.047Z,7.80
2018-04-07T12:15:26.711Z,7.40
2018-04-07T12:17:57.326Z,7.60
2018-04-07T12:20:28.303Z,7.73
2018-04-07T12:23:00.433Z,8.00
2018-04-07T12:25:31.115Z,7.63
2018-04-07T12:28:02.899Z,7.70
2018-04-07T12:30:34.291Z,7.57
2018-04-07T12:33:05.087Z,7.90
2018-04-07T12:35:35.848Z,7.63
2018-04-07T12:38:06.559Z,7.47
2018-04-07T12:40:38.469Z,7.50
2018-04-07T12:43:09.122Z,7.60
2018-04-07T12:45:41.157Z,7.67
2018-04-07T12:48:11.879Z,8.07
2018-04-07T12:50:42.607Z,7.70
2018-04-07T12:53:14.101Z,7.47
2018-04-07T12:55:45.535Z,7.33
2018-04-07T12:58:17.349Z,7.77
2018-04-07T13:00:47.991Z,7.13
2018-04-07T13:03:18.622Z,8.27
2018-04-07T13:05:49.587Z,7.57
2018-04-07T13:08:21.362Z,7.20
2018-04-07T13:10:53.064Z,7.70
2018-04-07T13:13:24.102Z,7.47
2018-04-07T13:15:54.783Z,8.17
2018-04-07T13:18:25.507Z,7.40
2018-04-07T13:20:56.203Z,7.53
2018-04-07T13:23:26.869Z,7.30
2018-04-07T13:25:57.794Z,6.97
2018-04-07T13:28:28.508Z,7.30
2018-04-07T13:30:59.256Z,8.07
2018-04-07T13:33:38.445Z,7.30
2018-04-07T13:36:01.148Z,7.53
2018-04-07T13:38:32.015Z,7.43
2018-04-07T13:41:03.759Z,7.60
2018-04-07T13:43:35.169Z,7.37
2018-04-07T13:46:05.870Z,7.57
2018-04-07T13:48:36.864Z,7.60
2018-04-07T13:51:07.633Z,7.70
2018-04-07T13:53:39.035Z,7.40
2018-04-07T13:56:10.012Z,7.30
2018-04-07T13:58:40.682Z,7.63
2018-04-07T14:01:11.767Z,7.20
2018-04-07T14:03:42.448Z,7.43
2018-04-07T14:06:13.210Z,7.50
2018-04-07T14:08:44.184Z,7.63
2018-04-07T14:11:14.858Z,7.17
2018-04-07T14:13:45.851Z,6.90
2018-04-07T14:16:16.536Z,7.90
2018-04-07T14:18:47.188Z,7.50
2018-04-07T14:21:17.908Z,7.20
2018-04-07T14:23:48.581Z,7.60
2018-04-07T14:26:19.476Z,7.67
2018-04-07T14:28:50.459Z,7.43
2018-04-07T14:31:21.513Z,7.70
2018-04-07T14:33:52.779Z,7.80
2018-04-07T14:36:23.451Z,7.33
2018-04-07T14:38:54.400Z,7.67
2018-04-07T14:41:25.367Z,7.50
2018-04-07T14:43:55.998Z,7.43
2018-04-07T14:46:27.675Z,7.30
2018-04-07T14:48:58.707Z,8.10
2018-04-07T14:51:30.101Z,7.60
2018-04-07T14:54:00.808Z,7.20
2018-04-07T14:56:31.576Z,7.50
2018-04-07T14:59:03.384Z,7.60
2018-04-07T15:01:35.087Z,7.43
2018-04-07T15:04:05.843Z,6.93
2018-04-07T15:06:37.066Z,7.10
2018-04-07T15:09:08.014Z,7.03
2018-04-07T15:11:38.827Z,7.80
2018-04-07T15:14:09.580Z,7.57
2018-04-07T15:16:42.958Z,7.93
2018-04-07T15:19:14.066Z,7.53
2018-04-07T15:21:45.589Z,7.33
2018-04-07T15:24:17.069Z,7.80
2018-04-07T15:26:47.758Z,7.20
2018-04-07T15:29:20.662Z,6.90
2018-04-07T15:31:51.287Z,7.83
2018-04-07T15:34:22.506Z,6.87
2018-04-07T15:36:53.469Z,7.53
2018-04-07T15:39:24.432Z,8.90
2018-04-07T15:41:55.850Z,7.03
2018-04-07T15:44:26.744Z,7.60
2018-04-07T15:46:57.711Z,7.27
2018-04-07T15:49:28.936Z,7.67
2018-04-07T15:51:59.632Z,7.33
2018-04-07T15:54:30.274Z,7.43
2018-04-07T15:57:01.955Z,8.30
2018-04-07T15:59:32.662Z,7.93
2018-04-07T16:02:04.533Z,7.43
2018-04-07T16:04:35.689Z,7.90
2018-04-07T16:07:06.488Z,8.70
2018-04-07T16:09:38.151Z,7.97
2018-04-07T16:12:10.025Z,8.10
2018-04-07T16:14:40.945Z,7.90
2018-04-07T16:17:12.158Z,7.53
2018-04-07T16:19:43.053Z,15.10
2018-04-07T16:22:14.050Z,8.50
2018-04-07T16:24:44.877Z,9.10
2018-04-07T16:27:15.704Z,17.30
2018-04-07T16:29:46.992Z,8.87
2018-04-07T16:32:18.623Z,8.53
2018-04-07T16:34:49.495Z,8.47
2018-04-07T16:37:20.895Z,8.37
2018-04-07T16:39:54.975Z,8.67
2018-04-07T16:42:25.954Z,8.10
2018-04-07T16:44:57.487Z,8.90
2018-04-07T16:47:28.216Z,8.60
2018-04-07T16:49:59.441Z,7.87
2018-04-07T16:52:30.233Z,8.37
2018-04-07T16:55:01.795Z,8.30
2018-04-07T16:57:32.608Z,8.43
2018-04-07T17:00:04.396Z,8.30
2018-04-07T17:02:35.475Z,8.67
2018-04-07T17:05:06.138Z,8.70
2018-04-07T17:07:36.904Z,8.63
2018-04-07T17:10:08.525Z,18.27
2018-04-07T17:12:39.287Z,11.93
2018-04-07T17:15:11.054Z,9.37
2018-04-07T17:17:42.816Z,9.67
2018-04-07T17:20:14.291Z,8.80
2018-04-07T17:22:45.046Z,9.00
2018-04-07T17:25:16.229Z,8.80
2018-04-07T17:27:47.807Z,9.30
2018-04-07T17:30:18.697Z,9.43
2018-04-07T17:32:49.903Z,9.13
2018-04-07T17:35:20.588Z,9.53
2018-04-07T17:37:51.280Z,9.47
2018-04-07T17:40:21.948Z,9.60
2018-04-07T17:42:52.676Z,9.70
2018-04-07T17:45:23.567Z,9.27
2018-04-07T17:47:54.527Z,9.63
2018-04-07T17:50:25.231Z,9.37
2018-04-07T17:52:57.030Z,50.20
2018-04-07T17:55:28.127Z,10.93
2018-04-07T17:57:58.845Z,9.50
2018-04-07T18:00:30.958Z,9.17
2018-04-07T18:03:02.688Z,10.23
2018-04-07T18:05:33.384Z,10.10
2018-04-07T18:08:04.069Z,9.43
2018-04-07T18:10:35.131Z,10.00
2018-04-07T18:13:06.229Z,9.50
2018-04-07T18:15:37.251Z,8.80
2018-04-07T18:18:08.262Z,8.97
2018-04-07T18:20:38.894Z,9.37
2018-04-07T18:23:09.619Z,9.73
2018-04-07T18:25:40.334Z,9.70
2018-04-07T18:28:11.016Z,9.67
2018-04-07T18:30:42.212Z,9.83
2018-04-07T18:33:13.147Z,9.17
2018-04-07T18:35:43.830Z,9.83
2018-04-07T18:38:14.827Z,10.37
2018-04-07T18:40:45.775Z,10.00
2018-04-07T18:43:16.541Z,10.63
2018-04-07T18:45:48.306Z,9.87
2018-04-07T18:48:19.804Z,10.10
2018-04-07T18:50:50.673Z,9.50
2018-04-07T18:53:22.768Z,10.13
2018-04-07T18:55:54.184Z,19.03
2018-04-07T18:58:25.036Z,10.47
2018-04-07T19:00:56.460Z,10.90
2018-04-07T19:03:27.119Z,11.07
2018-04-07T19:05:58.175Z,11.93
2018-04-07T19:08:29.038Z,10.93
2018-04-07T19:10:59.899Z,11.10
2018-04-07T19:13:30.626Z,11.47
2018-04-07T19:16:01.361Z,10.43
2018-04-07T19:18:32.452Z,9.50
2018-04-07T19:21:04.061Z,10.33
2018-04-07T19:23:35.190Z,10.80
2018-04-07T19:26:06.027Z,10.40
2018-04-07T19:28:36.886Z,10.57
2018-04-07T19:31:07.864Z,10.37
2018-04-07T19:33:39.623Z,10.67
2018-04-07T19:36:11.433Z,10.63
2018-04-07T19:38:42.507Z,10.37
2018-04-07T19:41:14.076Z,9.97
2018-04-07T19:43:45.817Z,10.27
2018-04-07T19:46:17.795Z,10.73
2018-04-07T19:48:49.496Z,10.33
2018-04-07T19:51:20.252Z,10.50
2018-04-07T19:53:52.017Z,10.53
2018-04-07T19:56:23.522Z,10.20
2018-04-07T19:58:54.391Z,9.83
2018-04-07T20:01:25.306Z,10.50
2018-04-07T20:03:56.073Z,11.20
2018-04-07T20:06:27.007Z,10.70
2018-04-07T20:08:58.499Z,10.00
2018-04-07T20:11:30.094Z,10.20
2018-04-07T20:14:00.825Z,10.50
2018-04-07T20:16:31.547Z,9.87
2018-04-07T20:19:02.524Z,11.10
2018-04-07T20:21:34.434Z,10.77
2018-04-07T20:24:05.165Z,10.37
2018-04-07T20:26:35.961Z,10.00
2018-04-07T20:29:07.733Z,11.07
2018-04-07T20:31:38.536Z,11.13
2018-04-07T20:34:09.247Z,11.03
2018-04-07T20:36:40.204Z,10.43
2018-04-07T20:39:10.967Z,10.13
2018-04-07T20:41:41.963Z,10.33
2018-04-07T20:44:12.895Z,10.67
2018-04-07T20:46:44.440Z,11.00
2018-04-07T20:49:15.555Z,11.17
2018-04-07T20:51:46.212Z,10.73
2018-04-07T20:54:17.802Z,11.30
2018-04-07T20:56:49.219Z,11.07
2018-04-07T20:59:19.894Z,11.90
2018-04-07T21:01:51.388Z,11.53
2018-04-07T21:04:22.069Z,11.73
2018-04-07T21:06:54.363Z,11.97
2018-04-07T21:09:25.841Z,11.50
2018-04-07T21:11:56.526Z,12.67
2018-04-07T21:14:29.246Z,11.57
2018-04-07T21:16:59.929Z,11.10
2018-04-07T21:19:31.392Z,12.27
2018-04-07T21:22:03.347Z,11.70
2018-04-07T21:24:34.827Z,10.40
2018-04-07T21:27:06.667Z,11.30
2018-04-07T21:29:38.598Z,12.37
2018-04-07T21:32:09.482Z,11.20
2018-04-07T21:34:40.193Z,11.27
2018-04-07T21:37:11.652Z,11.23
2018-04-07T21:39:42.625Z,10.70
2018-04-07T21:42:13.436Z,11.40
2018-04-07T21:44:44.156Z,10.57
2018-04-07T21:47:14.889Z,11.47
2018-04-07T21:49:46.443Z,10.90
2018-04-07T21:52:17.254Z,10.13
2018-04-07T21:54:49.093Z,10.80
2018-04-07T21:57:19.901Z,10.83
2018-04-07T21:59:50.682Z,11.37
2018-04-07T22:02:22.799Z,11.10
2018-04-07T22:04:54.666Z,11.37
2018-04-07T22:07:25.587Z,11.23
2018-04-07T22:09:56.860Z,11.60
2018-04-07T22:12:27.878Z,11.60
2018-04-07T22:14:58.824Z,10.93
2018-04-07T22:17:29.757Z,11.10
2018-04-07T22:20:00.577Z,10.00
2018-04-07T22:22:31.748Z,11.20
2018-04-07T22:25:04.238Z,11.47
2018-04-07T22:27:34.975Z,10.80
2018-04-07T22:30:05.901Z,10.90
2018-04-07T22:32:37.199Z,11.47
2018-04-07T22:35:09.063Z,11.23
2018-04-07T22:37:39.956Z,11.10
2018-04-07T22:40:10.684Z,11.87
2018-04-07T22:42:41.618Z,10.97
2018-04-07T22:45:12.467Z,11.03
2018-04-07T22:47:43.489Z,11.17
2018-04-07T22:50:14.472Z,11.37
2018-04-07T22:52:45.264Z,11.60
2018-04-07T22:55:16.222Z,11.53
2018-04-07T22:57:47.023Z,10.80
2018-04-07T23:00:18.687Z,11.40
2018-04-07T23:02:49.442Z,11.30
2018-04-07T23:05:21.260Z,11.43
2018-04-07T23:07:52.335Z,12.77
2018-04-07T23:10:22.991Z,10.87
2018-04-07T23:12:53.757Z,11.30
2018-04-07T23:15:24.411Z,12.10
2018-04-07T23:17:55.175Z,11.90
2018-04-07T23:20:25.862Z,12.43
2018-04-07T23:22:56.827Z,12.00
2018-04-07T23:25:27.496Z,12.10
2018-04-07T23:27:58.155Z,12.10
2018-04-07T23:30:28.830Z,11.60
2018-04-07T23:32:59.769Z,11.13
2018-04-07T23:35:30.413Z,12.10
2018-04-07T23:38:01.330Z,11.87
2018-04-07T23:40:32.803Z,12.60
2018-04-07T23:43:03.488Z,12.87
2018-04-07T23:45:34.756Z,12.30
2018-04-07T23:48:05.478Z,12.23
2018-04-07T23:50:36.142Z,11.73
2018-04-07T23:53:06.784Z,12.77
2018-04-07T23:55:38.237Z,11.67
2018-04-07T23:58:08.991Z,11.73
